Norristown, PA (19401)

11:40 PM EDT on August 03, 2015 (GMT -0400)
East Norriton | | Change Station
CLOSE
Current Station
Personal Weather Station
Location: Eagleville, PA
Elevation: 277 ft
Nearby Weather Stations

Elev 277 ft 40.16 °N, 75.35 °W | Updated 6 seconds ago

Clear
Clear
75.4 °F
Feels Like 77 °F
N
0.0
Wind Variable Wind from NNW
Gusts 2.0 mph

Today
High -- | Low -- °F
--% Chance of Precip.
Yesterday
High -- | Low -- °F
Precip. -- in
6:01 AM 8:13 PM
Waning Gibbous, 81% visible
Pressure 29.82 in
Visibility 10.0 miles
Clouds Clear
Heat Index 77 °F
Dew Point 67 °F
Humidity 76%
Rainfall 0.00 in
Snow Depth Not available.
UV 0 out of 12
Pollen 8.30 out of 12
Air Quality Not available.
Flu Activity Not available.
METAR KLOM 040315Z AUTO 21004KT 10SM CLR 26/20 A2982 RMK AO1

More Conditions Fewer Conditions

Pressure 29.82 in
Visibility 10.0 miles
Clouds Clear
Heat Index 77 °F
Dew Point 67 °F
Humidity 76%
Rainfall 0.00 in
Snow Depth Not available.
UV 0 out of 12
Pollen 8.30 out of 12
Air Quality Not available.
Flu Activity Not available.
METAR KLOM 040315Z AUTO 21004KT 10SM CLR 26/20 A2982 RMK AO1

More Conditions Fewer Conditions

Nowcast | as of 11:37 PM EDT on August 3, 2015

An area of scattered showers, with embedded thunder, will move into southern Berks and western Chester counties within the next 10-15 minutes. A few heavy downpours are expected with these showers as they move towards the east at 20 mph. Rainfall amounts of a quarter to a half inch are expected.

×

10-Day Weather Forecast

×

Almanac

Astronomy

Aug. 03, 2015 Rise Set
Actual Time
Civil Twilight
Nautical Twilight
Astronomical Twilight
Moon
Length of Visible Light
Length of Day
Tomorrow will be .
, % of the Moon is Illuminated

Today's Extremes

State Highs State Lows

Community

WunderPhotos

Upload Photos

1,843,838 photos uploaded!

WunderBlogs® & News

Nearby

Air Quality

  Air Quality AQ Index Pollutant
Not available.

Snow Depth

Station Depth Elevation

Earthquake Activity

City Distance Mag. Time & Date
Minimum magnitude displayed is 2.5.

Coastal Water Temperatures

Place Temperature

Stations

Nearby Weather Stations

Station Location Temp. Windchill Dew Point Humidity Wind Precip. Elev Updated Type